createdAt,value
2022-12-03T00:00:12.552Z,101.38
2022-12-03T00:03:00.655Z,120.38
2022-12-03T00:05:28.787Z,117.45
2022-12-03T00:07:56.422Z,103.97
2022-12-03T00:10:23.822Z,111.82
2022-12-03T00:12:51.247Z,93.93
2022-12-03T00:15:19.426Z,105.28
2022-12-03T00:17:46.884Z,90.65
2022-12-03T00:20:19.909Z,93.45
2022-12-03T00:22:47.537Z,92.15
2022-12-03T00:25:14.913Z,95.15
2022-12-03T00:27:42.727Z,106.20
2022-12-03T00:30:11.298Z,127.07
2022-12-03T00:32:38.939Z,141.45
2022-12-03T00:35:06.487Z,127.72
2022-12-03T00:37:35.445Z,130.50
2022-12-03T00:40:04.709Z,129.70
2022-12-03T00:42:32.267Z,130.40
2022-12-03T00:44:59.732Z,115.85
2022-12-03T00:47:27.258Z,131.27
2022-12-03T00:49:54.406Z,120.50
2022-12-03T00:52:21.986Z,142.55
2022-12-03T00:54:49.436Z,133.60
2022-12-03T00:57:17.048Z,135.52
2022-12-03T00:59:44.158Z,153.20
2022-12-03T01:02:11.745Z,186.52
2022-12-03T01:04:39.632Z,173.50
2022-12-03T01:07:07.186Z,152.95
2022-12-03T01:09:34.364Z,154.45
2022-12-03T01:12:01.864Z,142.85
2022-12-03T01:14:30.298Z,143.07
2022-12-03T01:16:57.823Z,136.25
2022-12-03T01:19:25.726Z,142.60
2022-12-03T01:21:53.226Z,167.90
2022-12-03T01:24:20.667Z,152.23
2022-12-03T01:26:48.198Z,140.60
2022-12-03T01:29:15.397Z,132.98
2022-12-03T01:32:02.362Z,143.98
2022-12-03T01:34:29.642Z,127.72
2022-12-03T01:36:57.475Z,125.07
2022-12-03T01:39:24.672Z,123.75
2022-12-03T01:41:53.586Z,122.57
2022-12-03T01:44:27.417Z,118.05
2022-12-03T01:46:57.211Z,110.55
2022-12-03T01:49:41.107Z,109.60
2022-12-03T01:52:15.478Z,130.65
2022-12-03T01:54:46.523Z,135.27
2022-12-03T01:57:20.160Z,122.25
2022-12-03T01:59:48.132Z,156.85
2022-12-03T02:02:28.236Z,121.03
2022-12-03T02:04:56.164Z,128.23
2022-12-03T02:07:28.839Z,125.55
2022-12-03T02:10:01.966Z,105.18
2022-12-03T02:12:37.884Z,113.47
2022-12-03T02:15:07.339Z,117.00
2022-12-03T02:17:35.038Z,128.02
2022-12-03T02:20:04.456Z,118.75
2022-12-03T02:22:47.123Z,128.65
2022-12-03T02:25:19.507Z,117.55
2022-12-03T02:27:48.568Z,126.68
2022-12-03T02:30:19.311Z,118.07
2022-12-03T02:32:48.178Z,112.25
2022-12-03T02:35:17.744Z,122.97
2022-12-03T02:37:46.973Z,125.40
2022-12-03T02:40:26.333Z,143.25
2022-12-03T02:42:56.552Z,153.15
2022-12-03T02:45:33.178Z,131.30
2022-12-03T02:48:06.839Z,155.30
2022-12-03T02:50:38.323Z,161.45
2022-12-03T02:53:09.374Z,152.82
2022-12-03T02:55:37.681Z,135.45
2022-12-03T02:58:05.689Z,152.60
2022-12-03T03:00:34.581Z,137.77
2022-12-03T03:03:04.580Z,128.73
2022-12-03T03:05:33.557Z,128.27
2022-12-03T03:08:01.817Z,132.65
2022-12-03T03:10:29.856Z,133.00
2022-12-03T03:12:57.856Z,144.68
2022-12-03T03:15:25.724Z,134.40
2022-12-03T03:17:53.304Z,138.38
2022-12-03T03:20:20.919Z,148.32
2022-12-03T03:22:48.432Z,133.93
2022-12-03T03:25:18.910Z,124.93
2022-12-03T03:27:47.132Z,137.10
2022-12-03T03:30:15.885Z,138.70
2022-12-03T03:32:43.562Z,144.90
2022-12-03T03:35:11.996Z,143.32
2022-12-03T03:37:39.677Z,135.05
2022-12-03T03:40:07.921Z,147.18
2022-12-03T03:42:36.286Z,150.48
2022-12-03T03:45:03.824Z,141.43
2022-12-03T03:47:31.982Z,145.40
2022-12-03T03:49:59.136Z,140.30
2022-12-03T03:52:26.761Z,165.00
2022-12-03T03:54:54.207Z,153.45
2022-12-03T03:57:21.966Z,144.23
2022-12-03T03:59:49.236Z,144.35
2022-12-03T04:02:21.497Z,145.68
2022-12-03T04:04:49.392Z,195.18
2022-12-03T04:07:17.151Z,303.45
2022-12-03T04:09:44.571Z,354.02
2022-12-03T04:12:31.786Z,380.02
2022-12-03T04:14:59.306Z,332.38
2022-12-03T04:17:26.960Z,327.45
2022-12-03T04:19:54.407Z,293.58
2022-12-03T04:22:40.007Z,234.15
2022-12-03T04:25:28.173Z,215.43
2022-12-03T04:28:14.511Z,270.58
2022-12-03T04:30:41.738Z,220.63
2022-12-03T04:33:27.792Z,229.32
2022-12-03T04:35:55.134Z,188.57
2022-12-03T04:38:22.958Z,191.52
2022-12-03T04:41:02.207Z,182.45
2022-12-03T04:43:34.864Z,177.07
2022-12-03T04:46:02.095Z,150.48
2022-12-03T04:48:30.506Z,178.90
2022-12-03T04:50:57.722Z,177.13
2022-12-03T04:53:25.264Z,168.10
2022-12-03T04:55:52.447Z,188.95
2022-12-03T04:58:19.892Z,170.48
2022-12-03T05:00:47.369Z,181.40
2022-12-03T05:03:14.847Z,148.45
2022-12-03T05:05:42.159Z,143.50
2022-12-03T05:08:09.791Z,153.85
2022-12-03T05:10:37.074Z,156.90
2022-12-03T05:13:04.650Z,153.30
2022-12-03T05:15:31.797Z,155.50
2022-12-03T05:17:59.346Z,148.07
2022-12-03T05:20:41.615Z,204.90
2022-12-03T05:23:10.709Z,197.55
2022-12-03T05:25:37.877Z,175.68
2022-12-03T05:28:06.101Z,161.02
2022-12-03T05:30:33.752Z,152.90
2022-12-03T05:33:01.532Z,187.48
2022-12-03T05:35:28.992Z,172.23
2022-12-03T05:37:56.476Z,242.52
2022-12-03T05:40:23.637Z,210.57
2022-12-03T05:42:53.913Z,188.20
2022-12-03T05:45:26.774Z,154.70
2022-12-03T05:47:56.005Z,150.50
2022-12-03T05:50:25.193Z,148.10
2022-12-03T05:52:55.554Z,142.75
2022-12-03T05:55:22.747Z,154.30
2022-12-03T05:57:50.241Z,137.13
2022-12-03T06:00:23.606Z,153.80
2022-12-03T06:02:51.578Z,148.07
2022-12-03T06:05:19.886Z,142.57
2022-12-03T06:07:49.312Z,155.00
2022-12-03T06:10:19.827Z,146.88
2022-12-03T06:12:47.274Z,138.55
2022-12-03T06:15:15.311Z,138.20
2022-12-03T06:17:42.812Z,145.43
2022-12-03T06:20:14.307Z,157.50
2022-12-03T06:22:42.261Z,155.40
2022-12-03T06:25:10.311Z,158.75
2022-12-03T06:27:37.936Z,169.23
2022-12-03T06:30:08.135Z,150.35
2022-12-03T06:32:36.031Z,157.90
2022-12-03T06:35:03.553Z,152.10
2022-12-03T06:37:31.061Z,163.60
2022-12-03T06:39:58.336Z,152.07
2022-12-03T06:42:25.831Z,176.50
2022-12-03T06:44:53.476Z,189.40
2022-12-03T06:47:21.169Z,153.32
2022-12-03T06:49:48.323Z,159.02
2022-12-03T06:52:15.924Z,161.27
2022-12-03T06:54:43.181Z,195.23
2022-12-03T06:57:10.710Z,209.63
2022-12-03T06:59:38.182Z,219.02
2022-12-03T07:02:05.763Z,228.98
2022-12-03T07:04:32.892Z,250.32
2022-12-03T07:07:00.460Z,248.00
2022-12-03T07:09:27.644Z,220.98
2022-12-03T07:11:55.337Z,255.48
2022-12-03T07:14:22.517Z,266.83
2022-12-03T07:16:50.056Z,263.02
2022-12-03T07:19:17.264Z,339.65
2022-12-03T07:21:44.871Z,339.10
2022-12-03T07:24:12.467Z,307.88
2022-12-03T07:26:40.194Z,279.67
2022-12-03T07:29:07.371Z,295.65
2022-12-03T07:31:34.999Z,333.15
2022-12-03T07:34:02.317Z,355.98
2022-12-03T07:36:29.942Z,326.33
2022-12-03T07:38:57.074Z,382.73
2022-12-03T07:41:24.566Z,468.73
2022-12-03T07:43:52.262Z,557.20
2022-12-03T07:46:19.840Z,335.05
2022-12-03T07:48:47.103Z,362.83
2022-12-03T07:51:15.608Z,409.38
2022-12-03T07:53:43.109Z,455.77
2022-12-03T07:56:11.187Z,423.45
2022-12-03T07:58:38.369Z,398.50
2022-12-03T08:01:06.137Z,488.70
2022-12-03T08:03:33.695Z,459.73
2022-12-03T08:06:01.288Z,359.38
2022-12-03T08:08:31.818Z,412.45
2022-12-03T08:11:00.623Z,269.38
2022-12-03T08:13:31.467Z,241.20
2022-12-03T08:16:17.432Z,314.33
2022-12-03T08:18:45.879Z,349.95
2022-12-03T08:21:15.432Z,296.80
2022-12-03T08:23:43.021Z,324.48
2022-12-03T08:26:25.736Z,338.20
2022-12-03T08:28:53.984Z,320.90
2022-12-03T08:31:32.347Z,345.38
2022-12-03T08:34:12.752Z,298.40
2022-12-03T08:36:55.803Z,309.05
2022-12-03T08:39:56.246Z,311.52
2022-12-03T08:43:29.872Z,313.15
2022-12-03T08:45:58.296Z,312.83
2022-12-03T08:48:27.071Z,301.17
2022-12-03T08:50:56.997Z,298.85
2022-12-03T08:53:34.947Z,290.50
2022-12-03T08:56:23.546Z,272.33
2022-12-03T08:58:57.314Z,235.05
2022-12-03T09:01:28.842Z,243.98
2022-12-03T09:03:59.340Z,244.30
2022-12-03T09:06:27.024Z,238.98
2022-12-03T09:08:54.351Z,255.63
2022-12-03T09:11:21.883Z,241.07
2022-12-03T09:13:49.590Z,249.32
2022-12-03T09:16:17.100Z,252.60
2022-12-03T09:18:44.587Z,235.65
2022-12-03T09:21:12.091Z,236.43
2022-12-03T09:23:39.267Z,242.52
2022-12-03T09:26:06.953Z,231.88
2022-12-03T09:28:34.169Z,227.18
2022-12-03T09:31:01.794Z,242.63
2022-12-03T09:33:32.686Z,200.98
2022-12-03T09:36:00.369Z,192.27
2022-12-03T09:38:27.499Z,212.15
2022-12-03T09:40:55.054Z,194.98
2022-12-03T09:43:22.452Z,167.93
2022-12-03T09:45:50.370Z,167.73
2022-12-03T09:48:20.927Z,157.20
2022-12-03T09:50:49.495Z,139.02
2022-12-03T09:53:23.262Z,139.57
2022-12-03T09:56:00.245Z,137.65
2022-12-03T09:58:38.178Z,132.40
2022-12-03T10:01:13.258Z,102.75
2022-12-03T10:03:46.383Z,116.50
2022-12-03T10:06:20.455Z,110.57
2022-12-03T10:08:51.195Z,103.45
2022-12-03T10:11:21.722Z,89.43
2022-12-03T10:13:55.580Z,88.40
2022-12-03T10:16:23.781Z,102.57
2022-12-03T10:18:54.194Z,90.25
2022-12-03T10:21:35.268Z,79.82
2022-12-03T10:24:29.235Z,91.75
2022-12-03T10:26:59.562Z,76.15
2022-12-03T10:29:33.288Z,69.43
2022-12-03T10:32:12.943Z,71.88
2022-12-03T10:34:41.834Z,68.18
2022-12-03T10:37:16.932Z,75.00
2022-12-03T10:40:01.736Z,70.50
2022-12-03T10:42:31.876Z,76.80
2022-12-03T10:45:16.611Z,73.97
2022-12-03T10:48:03.702Z,79.07
2022-12-03T10:50:31.890Z,73.40
2022-12-03T10:52:59.769Z,73.53
2022-12-03T10:55:29.927Z,71.55
2022-12-03T10:57:57.827Z,68.00
2022-12-03T11:00:25.830Z,64.68
2022-12-03T11:02:56.993Z,60.50
2022-12-03T11:05:27.690Z,78.38
2022-12-03T11:07:56.505Z,64.70
2022-12-03T11:10:26.111Z,64.50
2022-12-03T11:13:32.528Z,56.58
2022-12-03T11:16:04.215Z,69.93
2022-12-03T11:18:37.948Z,62.90
2022-12-03T11:21:08.814Z,63.33
2022-12-03T11:23:45.492Z,61.40
2022-12-03T11:26:19.578Z,57.35
2022-12-03T11:28:47.633Z,61.35
2022-12-03T11:31:40.042Z,58.00
2022-12-03T11:34:31.637Z,51.30
2022-12-03T11:37:12.684Z,60.85
2022-12-03T11:39:49.648Z,66.63
2022-12-03T11:42:25.905Z,53.72
2022-12-03T11:45:05.754Z,57.53
2022-12-03T11:47:43.922Z,57.05
2022-12-03T11:50:22.039Z,77.82
2022-12-03T11:53:16.639Z,61.22
2022-12-03T11:55:48.826Z,63.17
2022-12-03T11:58:30.697Z,56.20
2022-12-03T12:01:00.753Z,47.00
2022-12-03T12:03:35.656Z,47.97
2022-12-03T12:06:06.352Z,49.13
2022-12-03T12:08:36.748Z,44.63
2022-12-03T12:11:04.843Z,40.63
2022-12-03T12:13:32.095Z,44.35
2022-12-03T12:16:08.092Z,43.40
2022-12-03T12:18:52.432Z,45.22
2022-12-03T12:21:50.987Z,45.25
2022-12-03T12:24:47.160Z,51.10
2022-12-03T12:27:17.664Z,47.83
2022-12-03T12:29:50.323Z,46.60
2022-12-03T12:32:23.274Z,57.90
2022-12-03T12:34:54.076Z,51.65
2022-12-03T12:37:52.247Z,52.22
2022-12-03T12:40:27.091Z,58.70
2022-12-03T12:43:10.044Z,50.80
2022-12-03T12:45:42.258Z,51.63
2022-12-03T12:48:21.636Z,49.47
2022-12-03T12:51:20.344Z,40.30
2022-12-03T12:53:49.282Z,44.55
2022-12-03T12:56:31.021Z,43.53
2022-12-03T12:59:14.072Z,54.50
2022-12-03T13:01:43.392Z,53.83
2022-12-03T13:04:30.762Z,56.08
2022-12-03T13:06:59.732Z,51.03
2022-12-03T13:09:33.801Z,52.17
2022-12-03T13:12:11.917Z,66.88
2022-12-03T13:14:49.232Z,59.83
2022-12-03T13:17:24.678Z,59.08
2022-12-03T13:20:05.134Z,77.88
2022-12-03T13:22:34.747Z,91.88
2022-12-03T13:25:58.236Z,59.10
2022-12-03T13:28:21.152Z,66.88
2022-12-03T13:30:48.712Z,74.47
2022-12-03T13:33:26.299Z,90.68
2022-12-03T13:35:57.712Z,74.50
2022-12-03T13:38:26.033Z,58.45
2022-12-03T13:41:03.352Z,49.60
2022-12-03T13:43:32.960Z,55.03
2022-12-03T13:46:01.411Z,52.08
2022-12-03T13:48:35.621Z,46.05
2022-12-03T13:51:26.955Z,49.78
2022-12-03T13:53:54.759Z,44.28
2022-12-03T13:56:30.922Z,41.28
2022-12-03T13:59:00.487Z,36.05
2022-12-03T14:01:29.044Z,39.25
2022-12-03T14:03:56.797Z,36.75
2022-12-03T14:06:24.533Z,39.05
2022-12-03T14:08:51.856Z,77.88
2022-12-03T14:11:37.988Z,62.88
2022-12-03T14:14:05.367Z,64.32
2022-12-03T14:16:33.808Z,79.38
2022-12-03T14:19:01.056Z,67.07
2022-12-03T14:21:28.582Z,53.75
2022-12-03T14:23:55.766Z,78.80
2022-12-03T14:26:23.224Z,91.97
2022-12-03T14:28:50.442Z,81.32
2022-12-03T14:31:19.058Z,123.65
2022-12-03T14:33:46.648Z,109.32
2022-12-03T14:36:14.237Z,76.78
2022-12-03T14:38:41.482Z,74.82
2022-12-03T14:41:28.945Z,67.45
2022-12-03T14:43:56.123Z,74.05
2022-12-03T14:46:23.679Z,70.07
2022-12-03T14:48:50.952Z,75.20
2022-12-03T14:51:18.466Z,70.35
2022-12-03T14:53:45.710Z,81.05
2022-12-03T14:56:13.435Z,86.50
2022-12-03T14:58:40.813Z,79.43
2022-12-03T15:01:08.425Z,73.32
2022-12-03T15:03:35.607Z,80.50
2022-12-03T15:06:04.287Z,243.27
2022-12-03T15:08:34.634Z,171.82
2022-12-03T15:11:04.713Z,102.50
2022-12-03T15:13:34.383Z,106.45
2022-12-03T15:16:02.512Z,131.10
2022-12-03T15:18:31.238Z,103.78
2022-12-03T15:20:58.769Z,84.43
2022-12-03T15:26:12.918Z,83.93
2022-12-03T15:28:48.393Z,74.40
2022-12-03T15:31:20.827Z,76.93
2022-12-03T15:33:55.367Z,89.80
2022-12-03T15:36:25.482Z,99.90
2022-12-03T15:38:56.883Z,99.38
2022-12-03T15:41:50.080Z,115.37
2022-12-03T15:44:17.342Z,132.40
2022-12-03T15:46:44.997Z,116.70
2022-12-03T15:49:12.281Z,126.07
2022-12-03T15:51:39.971Z,173.38
2022-12-03T15:54:07.293Z,179.05
2022-12-03T15:56:37.765Z,187.35
2022-12-03T15:59:05.233Z,182.93
2022-12-03T16:01:32.885Z,293.90
2022-12-03T16:04:00.271Z,335.88
2022-12-03T16:06:27.839Z,369.10
2022-12-03T16:08:55.232Z,408.45
2022-12-03T16:11:22.792Z,420.77
2022-12-03T16:13:49.993Z,428.85
2022-12-03T16:16:17.693Z,395.10
2022-12-03T16:18:47.907Z,340.80
2022-12-03T16:21:15.496Z,353.23
2022-12-03T16:23:42.706Z,328.27
2022-12-03T16:26:10.497Z,311.70
2022-12-03T16:28:37.692Z,305.40
2022-12-03T16:31:05.712Z,302.30
2022-12-03T16:33:33.264Z,322.92
2022-12-03T16:36:01.069Z,319.38
2022-12-03T16:38:28.320Z,307.10
2022-12-03T16:40:56.083Z,302.98
2022-12-03T16:43:23.552Z,306.73
2022-12-03T16:46:02.254Z,328.13
2022-12-03T16:48:30.507Z,342.52
2022-12-03T16:50:58.032Z,377.80
2022-12-03T16:53:26.153Z,357.27
2022-12-03T16:55:53.386Z,415.52
2022-12-03T16:58:21.686Z,400.38
2022-12-03T17:00:49.899Z,425.77
2022-12-03T17:03:18.082Z,406.65
2022-12-03T17:05:46.147Z,412.95
2022-12-03T17:08:14.659Z,421.50
2022-12-03T17:10:42.813Z,426.80
2022-12-03T17:13:11.201Z,373.88
2022-12-03T17:15:40.663Z,346.48
2022-12-03T17:18:09.838Z,367.90
2022-12-03T17:20:38.500Z,374.70
2022-12-03T17:23:08.092Z,394.05
2022-12-03T17:25:38.882Z,342.45
2022-12-03T17:28:07.097Z,336.52
2022-12-03T17:30:34.518Z,326.77
2022-12-03T17:33:02.050Z,342.13
2022-12-03T17:35:29.472Z,421.13
2022-12-03T17:37:57.450Z,424.05
2022-12-03T17:40:24.866Z,405.30
2022-12-03T17:42:52.402Z,427.02
2022-12-03T17:45:19.644Z,417.00
2022-12-03T17:47:47.162Z,434.38
2022-12-03T17:50:14.297Z,425.73
2022-12-03T17:52:41.903Z,507.35
2022-12-03T17:55:12.159Z,502.40
2022-12-03T17:57:40.626Z,488.48
2022-12-03T18:00:09.156Z,495.70
2022-12-03T18:02:42.745Z,478.48
2022-12-03T18:05:10.547Z,481.20
2022-12-03T18:07:38.091Z,410.63
2022-12-03T18:10:07.056Z,414.02
2022-12-03T18:12:36.047Z,421.63
2022-12-03T18:15:03.564Z,378.75
2022-12-03T18:17:31.057Z,337.75
2022-12-03T18:19:58.834Z,294.05
2022-12-03T18:22:28.273Z,314.38
2022-12-03T18:24:55.707Z,383.05
2022-12-03T18:27:23.831Z,409.15
2022-12-03T18:29:51.290Z,417.45
2022-12-03T18:32:29.361Z,407.42
2022-12-03T18:34:58.096Z,414.00
2022-12-03T18:37:29.967Z,406.38
2022-12-03T18:39:58.471Z,410.25
2022-12-03T18:42:26.670Z,393.90
2022-12-03T18:44:56.061Z,429.05
2022-12-03T18:47:28.959Z,459.92
2022-12-03T18:49:56.837Z,465.42
2022-12-03T18:52:25.385Z,496.73
2022-12-03T18:54:55.604Z,470.73
2022-12-03T18:57:24.297Z,563.72
2022-12-03T18:59:51.877Z,640.38
2022-12-03T19:03:00.700Z,568.97
2022-12-03T19:05:12.761Z,532.80
2022-12-03T19:07:40.430Z,501.55
2022-12-03T19:10:08.887Z,523.38
2022-12-03T19:12:36.987Z,546.25
2022-12-03T19:15:06.133Z,572.35
2022-12-03T19:17:33.832Z,533.10
2022-12-03T19:20:01.158Z,533.63
2022-12-03T19:22:28.822Z,543.50
2022-12-03T19:24:56.371Z,544.03
2022-12-03T19:27:24.046Z,512.88
2022-12-03T19:29:51.233Z,545.13
2022-12-03T19:32:18.976Z,521.58
2022-12-03T19:34:46.227Z,512.22
2022-12-03T19:37:14.044Z,509.83
2022-12-03T19:39:41.470Z,532.28
2022-12-03T19:42:10.186Z,539.33
2022-12-03T19:44:37.536Z,498.15
2022-12-03T19:47:05.231Z,557.58
2022-12-03T19:49:32.850Z,585.10
2022-12-03T19:52:00.462Z,589.85
2022-12-03T19:54:27.750Z,572.75
2022-12-03T19:56:55.239Z,519.55
2022-12-03T19:59:22.563Z,610.13
2022-12-03T20:01:50.152Z,621.80
2022-12-03T20:04:17.492Z,662.55
2022-12-03T20:06:45.698Z,628.25
2022-12-03T20:09:17.591Z,543.78
2022-12-03T20:11:46.088Z,507.00
2022-12-03T20:14:15.816Z,498.15
2022-12-03T20:16:44.930Z,511.58
2022-12-03T20:19:14.946Z,504.23
2022-12-03T20:21:43.405Z,489.55
2022-12-03T20:24:14.810Z,534.78
2022-12-03T20:26:43.508Z,532.42
2022-12-03T20:29:10.971Z,498.33
2022-12-03T20:31:38.589Z,492.35
2022-12-03T20:34:07.305Z,497.67
2022-12-03T20:36:35.186Z,495.92
2022-12-03T20:39:05.912Z,495.35
2022-12-03T20:41:35.807Z,491.70
2022-12-03T20:44:03.835Z,487.20
2022-12-03T20:46:31.925Z,497.55
2022-12-03T20:48:59.501Z,491.95
2022-12-03T20:51:30.177Z,469.00
2022-12-03T20:54:00.639Z,473.08
2022-12-03T20:56:31.638Z,473.25
2022-12-03T20:59:07.217Z,474.63
2022-12-03T21:01:36.437Z,454.55
2022-12-03T21:04:04.983Z,488.30
2022-12-03T21:06:35.964Z,506.08
2022-12-03T21:09:05.940Z,482.90
2022-12-03T21:11:36.090Z,481.17
2022-12-03T21:14:04.393Z,460.98
2022-12-03T21:19:23.430Z,472.73
2022-12-03T21:21:50.967Z,468.40
2022-12-03T21:24:18.247Z,451.52
2022-12-03T21:26:45.778Z,506.20
2022-12-03T21:29:13.163Z,520.45
2022-12-03T21:31:40.797Z,483.55
2022-12-03T21:34:08.931Z,423.52
2022-12-03T21:36:36.737Z,433.92
2022-12-03T21:39:05.472Z,411.58
2022-12-03T21:41:35.254Z,426.20
2022-12-03T21:44:02.548Z,469.83
2022-12-03T21:47:10.205Z,489.67
2022-12-03T21:49:22.906Z,457.17
2022-12-03T21:51:50.645Z,482.83
2022-12-03T21:54:18.052Z,491.67
2022-12-03T21:56:45.844Z,528.53
2022-12-03T21:59:13.005Z,567.60
2022-12-03T22:01:45.560Z,561.35
2022-12-03T22:04:14.373Z,491.48
2022-12-03T22:06:41.965Z,496.92
2022-12-03T22:09:09.225Z,490.67
2022-12-03T22:11:36.735Z,474.85
2022-12-03T22:14:05.000Z,467.92
2022-12-03T22:16:33.923Z,452.33
2022-12-03T22:19:07.395Z,426.92
2022-12-03T22:21:35.876Z,426.40
2022-12-03T22:24:03.397Z,451.10
2022-12-03T22:26:31.053Z,433.27
2022-12-03T22:28:58.355Z,429.58
2022-12-03T22:31:26.129Z,402.30
2022-12-03T22:33:53.476Z,438.75
2022-12-03T22:36:21.994Z,422.73
2022-12-03T22:38:50.553Z,445.58
2022-12-03T22:41:19.316Z,445.60
2022-12-03T22:43:47.297Z,438.25
2022-12-03T22:46:16.018Z,445.45
2022-12-03T22:48:45.367Z,465.92
2022-12-03T22:51:25.525Z,456.38
2022-12-03T22:54:11.784Z,416.23
2022-12-03T22:59:07.500Z,411.95
2022-12-03T23:01:37.564Z,426.67
2022-12-03T23:04:06.029Z,442.45
2022-12-03T23:06:36.108Z,400.67
2022-12-03T23:09:07.935Z,393.48
2022-12-03T23:11:38.404Z,410.58
2022-12-03T23:14:06.494Z,422.30
2022-12-03T23:16:34.524Z,425.42
2022-12-03T23:19:03.496Z,421.60
2022-12-03T23:21:34.329Z,416.33
2022-12-03T23:24:04.715Z,402.30
2022-12-03T23:26:37.916Z,444.80
2022-12-03T23:29:06.874Z,432.17
2022-12-03T23:31:35.899Z,450.70
2022-12-03T23:34:04.129Z,456.50
2022-12-03T23:36:32.979Z,516.15
2022-12-03T23:39:00.644Z,518.22
2022-12-03T23:41:28.375Z,478.23
2022-12-03T23:43:56.803Z,456.90
2022-12-03T23:46:26.176Z,494.15
2022-12-03T23:48:54.158Z,456.85
2022-12-03T23:51:24.692Z,436.83
2022-12-03T23:53:57.222Z,443.92
2022-12-03T23:56:36.852Z,450.50
2022-12-03T23:59:16.227Z,447.23
